Time;durP1;ratioP1;P1;durP2;ratioP2;P2;SDS_P1;SDS_P2;PMS_P1;PMS_P2;Temp;Humidity;BMP_temperature;BMP_pressure;BME280_temperature;BME280_humidity;BME280_pressure;Samples;Min_cycle;Max_cycle;Signal;HPM_P1;HPM_P2
2022/06/26 00:01:25;;;;;;;;;1.00;1.00;;;;;;;;4891938;28;46576;-67
2022/06/26 00:03:50;;;;;;;;;3.00;2.00;;;;;;;;4882530;29;45707;-67
2022/06/26 00:06:15;;;;;;;;;1.00;1.00;;;;;;;;4892969;28;45711;-67
2022/06/26 00:08:41;;;;;;;;;1.33;1.33;;;;;;;;4883217;29;46139;-67
2022/06/26 00:11:06;;;;;;;;;4.33;2.00;;;;;;;;4889844;29;45442;-67
2022/06/26 00:13:31;;;;;;;;;2.00;2.00;;;;;;;;4886639;29;46228;-67
2022/06/26 00:15:56;;;;;;;;;1.00;1.00;;;;;;;;4891526;28;45627;-67
2022/06/26 00:18:22;;;;;;;;;3.00;3.00;;;;;;;;4896634;28;45534;-67
2022/06/26 00:20:47;;;;;;;;;2.00;2.00;;;;;;;;4890193;28;45901;-67
2022/06/26 00:23:12;;;;;;;;;2.33;2.33;;;;;;;;4887736;28;46688;-67
2022/06/26 00:25:37;;;;;;;;;1.33;1.33;;;;;;;;4888565;29;45728;-67
2022/06/26 00:28:03;;;;;;;;;3.67;2.67;;;;;;;;4889548;28;45481;-67
2022/06/26 00:30:28;;;;;;;;;3.00;3.00;;;;;;;;4888845;29;46772;-67
2022/06/26 00:32:53;;;;;;;;;3.67;2.00;;;;;;;;4891185;29;46371;-67
2022/06/26 00:35:18;;;;;;;;;3.00;3.00;;;;;;;;4891384;28;45411;-67
2022/06/26 00:37:44;;;;;;;;;2.00;2.00;;;;;;;;4892227;28;45475;-67
2022/06/26 00:40:09;;;;;;;;;2.00;2.00;;;;;;;;4888279;29;45763;-67
2022/06/26 00:42:35;;;;;;;;;2.00;2.00;;;;;;;;4892824;29;46513;-67
2022/06/26 00:45:00;;;;;;;;;2.33;1.67;;;;;;;;4883986;29;46089;-67
2022/06/26 00:47:26;;;;;;;;;2.00;2.00;;;;;;;;4891158;29;46544;-67
2022/06/26 00:49:51;;;;;;;;;2.33;2.33;;;;;;;;4885482;29;48274;-67
2022/06/26 00:52:20;;;;;;;;;2.00;2.00;;;;;;;;4891061;28;45432;-67
2022/06/26 00:54:46;;;;;;;;;2.67;2.67;;;;;;;;4889899;28;45838;-67
2022/06/26 00:57:12;;;;;;;;;2.00;2.00;;;;;;;;4887646;29;45574;-67
2022/06/26 00:59:37;;;;;;;;;3.33;2.00;;;;;;;;4890793;28;47027;-67
2022/06/26 01:02:03;;;;;;;;;2.67;2.67;;;;;;;;4888356;29;45873;-67
2022/06/26 01:04:28;;;;;;;;;4.33;2.33;;;;;;;;4893660;29;45425;-67
2022/06/26 01:06:54;;;;;;;;;2.00;2.00;;;;;;;;4888778;29;45923;-67
2022/06/26 01:09:19;;;;;;;;;1.67;1.67;;;;;;;;4889304;29;45381;-67
2022/06/26 01:11:44;;;;;;;;;3.00;3.00;;;;;;;;4889462;28;46559;-67
2022/06/26 01:14:10;;;;;;;;;4.33;2.33;;;;;;;;4893660;29;45400;-67
2022/06/26 01:16:36;;;;;;;;;2.00;2.00;;;;;;;;4887708;29;45652;-68
2022/06/26 01:19:04;;;;;;;;;5.00;2.33;;;;;;;;4887137;29;45676;-67
2022/06/26 01:21:30;;;;;;;;;5.00;3.00;;;;;;;;4896603;29;45395;-67
2022/06/26 01:23:55;;;;;;;;;3.00;2.33;;;;;;;;4887505;29;45482;-67
2022/06/26 01:26:21;;;;;;;;;3.00;3.00;;;;;;;;4889349;29;45694;-67
2022/06/26 01:28:46;;;;;;;;;1.33;1.33;;;;;;;;4883722;29;47259;-67
2022/06/26 01:31:11;;;;;;;;;4.00;4.00;;;;;;;;4887804;29;46555;-67
2022/06/26 01:33:37;;;;;;;;;1.00;1.00;;;;;;;;4882611;28;45537;-67
2022/06/26 01:36:03;;;;;;;;;3.00;3.00;;;;;;;;4893124;28;46249;-67
2022/06/26 01:38:28;;;;;;;;;3.00;3.00;;;;;;;;4885306;28;46607;-67
2022/06/26 01:40:55;;;;;;;;;4.67;2.00;;;;;;;;4890941;28;46587;-67
2022/06/26 01:43:21;;;;;;;;;2.00;2.00;;;;;;;;4888097;29;45344;-67
2022/06/26 01:45:49;;;;;;;;;4.00;3.00;;;;;;;;4892036;29;45549;-67
2022/06/26 01:48:14;;;;;;;;;2.33;2.33;;;;;;;;4891768;29;45751;-67
2022/06/26 01:50:40;;;;;;;;;3.00;3.00;;;;;;;;4894471;28;45628;-67
2022/06/26 01:53:05;;;;;;;;;5.00;5.00;;;;;;;;4889551;29;45432;-67
2022/06/26 01:55:31;;;;;;;;;2.00;2.00;;;;;;;;4892428;29;45388;-67
2022/06/26 01:57:56;;;;;;;;;2.33;2.33;;;;;;;;4888722;28;46787;-67
2022/06/26 02:00:21;;;;;;;;;3.33;2.00;;;;;;;;4887307;29;47675;-67
2022/06/26 02:02:46;;;;;;;;;3.00;3.00;;;;;;;;4891345;29;45795;-67
2022/06/26 02:05:13;;;;;;;;;3.00;2.00;;;;;;;;4888597;29;45659;-67
2022/06/26 02:07:38;;;;;;;;;4.67;3.33;;;;;;;;4894239;28;45355;-67
2022/06/26 02:15:32;;;;;;;;;2.00;2.00;;;;;;;;4886302;29;45475;-67
2022/06/26 02:17:57;;;;;;;;;5.00;4.00;;;;;;;;4892234;28;45776;-67
2022/06/26 02:20:22;;;;;;;;;4.00;3.00;;;;;;;;4884237;29;47729;-67
2022/06/26 02:22:47;;;;;;;;;4.33;4.00;;;;;;;;4886850;29;45518;-67
2022/06/26 02:25:13;;;;;;;;;3.33;3.33;;;;;;;;4890748;28;45512;-67
2022/06/26 02:27:38;;;;;;;;;3.00;3.00;;;;;;;;4889216;28;46635;-67
2022/06/26 02:30:03;;;;;;;;;3.33;3.00;;;;;;;;4885375;29;45620;-67
2022/06/26 02:32:28;;;;;;;;;1.67;1.67;;;;;;;;4893281;29;46023;-67
2022/06/26 02:34:53;;;;;;;;;4.33;3.00;;;;;;;;4887172;29;45686;-67
2022/06/26 02:37:19;;;;;;;;;3.67;3.67;;;;;;;;4886747;29;46707;-67
2022/06/26 02:39:44;;;;;;;;;4.00;3.00;;;;;;;;4889223;29;45609;-67
2022/06/26 02:42:09;;;;;;;;;4.00;2.00;;;;;;;;4893481;29;45576;-67
2022/06/26 02:44:34;;;;;;;;;4.00;2.33;;;;;;;;4890149;29;45322;-67
2022/06/26 02:47:00;;;;;;;;;2.33;2.33;;;;;;;;4889769;29;46206;-66
2022/06/26 02:49:25;;;;;;;;;6.33;3.00;;;;;;;;4888745;29;45493;-67
2022/06/26 02:51:50;;;;;;;;;2.00;2.00;;;;;;;;4887985;28;45498;-66
2022/06/26 02:54:16;;;;;;;;;3.00;3.00;;;;;;;;4884881;28;45601;-67
2022/06/26 02:56:41;;;;;;;;;3.33;3.33;;;;;;;;4885540;29;45726;-67
2022/06/26 02:59:06;;;;;;;;;5.00;3.00;;;;;;;;4883279;29;46876;-67
2022/06/26 03:01:31;;;;;;;;;2.00;2.00;;;;;;;;4884260;29;45405;-67
2022/06/26 03:03:56;;;;;;;;;4.33;3.67;;;;;;;;4887078;28;45520;-67
2022/06/26 03:06:22;;;;;;;;;4.33;2.67;;;;;;;;4893156;28;45898;-67
2022/06/26 03:08:47;;;;;;;;;2.33;2.33;;;;;;;;4888529;29;46448;-68
2022/06/26 03:11:12;;;;;;;;;4.00;2.00;;;;;;;;4891174;29;45451;-68
2022/06/26 03:13:37;;;;;;;;;4.67;3.00;;;;;;;;4887766;28;45454;-67
2022/06/26 03:16:03;;;;;;;;;4.00;4.00;;;;;;;;4886500;29;45407;-67
2022/06/26 03:18:28;;;;;;;;;5.33;3.00;;;;;;;;4888917;28;46603;-67
2022/06/26 03:20:53;;;;;;;;;5.33;3.00;;;;;;;;4892377;28;45308;-67
2022/06/26 03:23:18;;;;;;;;;3.67;3.67;;;;;;;;4882108;29;45534;-67
2022/06/26 03:25:44;;;;;;;;;4.67;2.00;;;;;;;;4887365;28;45590;-67
2022/06/26 03:28:09;;;;;;;;;2.00;2.00;;;;;;;;4882356;29;47272;-67
2022/06/26 03:30:34;;;;;;;;;5.00;3.00;;;;;;;;4881090;29;45415;-67
2022/06/26 03:32:59;;;;;;;;;3.00;3.00;;;;;;;;4886645;29;46344;-67
2022/06/26 03:35:24;;;;;;;;;4.33;4.00;;;;;;;;4891891;28;45436;-67
2022/06/26 03:37:50;;;;;;;;;5.00;3.00;;;;;;;;4889282;29;47627;-67
2022/06/26 03:40:15;;;;;;;;;4.00;3.00;;;;;;;;4891683;29;45367;-67
2022/06/26 03:42:40;;;;;;;;;4.00;3.00;;;;;;;;4889837;28;45298;-67
2022/06/26 03:45:06;;;;;;;;;3.00;3.00;;;;;;;;4886783;29;45585;-67
2022/06/26 03:47:33;;;;;;;;;5.00;2.00;;;;;;;;4892608;29;48014;-68
2022/06/26 03:49:58;;;;;;;;;3.00;3.00;;;;;;;;4885893;29;45400;-67
2022/06/26 03:52:24;;;;;;;;;4.00;3.00;;;;;;;;4896296;29;45437;-67
2022/06/26 03:54:50;;;;;;;;;3.00;3.00;;;;;;;;4881974;29;45961;-67
2022/06/26 03:57:15;;;;;;;;;4.33;4.00;;;;;;;;4896554;29;45379;-67
2022/06/26 03:59:41;;;;;;;;;3.00;3.00;;;;;;;;4883712;29;45503;-67
2022/06/26 04:02:06;;;;;;;;;6.00;3.00;;;;;;;;4892558;29;45327;-67
2022/06/26 04:04:31;;;;;;;;;2.67;2.33;;;;;;;;4888086;29;45843;-66
2022/06/26 04:06:56;;;;;;;;;2.67;2.67;;;;;;;;4888120;29;45337;-67
2022/06/26 04:09:21;;;;;;;;;6.00;5.00;;;;;;;;4887838;28;45800;-67
2022/06/26 04:11:47;;;;;;;;;6.33;3.00;;;;;;;;4893723;29;45694;-67
2022/06/26 04:14:12;;;;;;;;;3.00;3.00;;;;;;;;4885757;28;45897;-67
2022/06/26 04:16:37;;;;;;;;;3.67;3.67;;;;;;;;4894907;29;46613;-67
2022/06/26 04:19:03;;;;;;;;;4.00;4.00;;;;;;;;4884692;28;45462;-67
2022/06/26 04:21:28;;;;;;;;;6.00;4.00;;;;;;;;4891366;29;45793;-67
2022/06/26 04:23:53;;;;;;;;;4.00;3.00;;;;;;;;4888563;29;45451;-67
2022/06/26 04:26:18;;;;;;;;;2.67;2.00;;;;;;;;4890992;28;46489;-67
2022/06/26 04:28:43;;;;;;;;;3.00;2.00;;;;;;;;4890666;28;45491;-68
2022/06/26 04:31:09;;;;;;;;;4.67;3.67;;;;;;;;4887257;28;45380;-67
2022/06/26 04:33:34;;;;;;;;;4.67;3.00;;;;;;;;4890746;29;45558;-67
2022/06/26 04:35:59;;;;;;;;;5.00;3.00;;;;;;;;4889597;29;46484;-67
2022/06/26 04:38:25;;;;;;;;;6.67;3.00;;;;;;;;4888950;29;45524;-67
2022/06/26 04:40:50;;;;;;;;;3.67;2.00;;;;;;;;4890378;29;45834;-67
2022/06/26 04:43:15;;;;;;;;;2.33;2.00;;;;;;;;4888235;28;45625;-67
2022/06/26 04:45:40;;;;;;;;;2.00;1.00;;;;;;;;4886703;29;46551;-67
2022/06/26 04:48:06;;;;;;;;;4.67;2.00;;;;;;;;4890539;29;45550;-67
2022/06/26 04:50:31;;;;;;;;;8.33;3.00;;;;;;;;4889806;29;45577;-67
2022/06/26 04:52:56;;;;;;;;;5.00;3.67;;;;;;;;4892582;29;45472;-67
2022/06/26 04:55:21;;;;;;;;;3.00;2.67;;;;;;;;4892372;28;45789;-67
2022/06/26 04:57:46;;;;;;;;;2.00;2.00;;;;;;;;4889737;28;46026;-67
2022/06/26 05:00:13;;;;;;;;;2.67;2.67;;;;;;;;4892100;29;46429;-67
2022/06/26 05:02:38;;;;;;;;;3.33;3.00;;;;;;;;4890224;28;45805;-67
2022/06/26 05:05:04;;;;;;;;;6.00;4.00;;;;;;;;4887349;29;46121;-67
2022/06/26 05:07:29;;;;;;;;;2.33;2.00;;;;;;;;4890563;29;46201;-67
2022/06/26 05:09:54;;;;;;;;;3.33;2.00;;;;;;;;4891596;28;45580;-67
2022/06/26 05:12:19;;;;;;;;;3.00;3.00;;;;;;;;4890221;29;46315;-67
2022/06/26 05:14:45;;;;;;;;;3.00;3.00;;;;;;;;4888884;29;46316;-67
2022/06/26 05:17:10;;;;;;;;;2.67;2.67;;;;;;;;4888954;29;45748;-67
2022/06/26 05:19:35;;;;;;;;;1.33;1.33;;;;;;;;4886604;28;45549;-67
2022/06/26 05:22:02;;;;;;;;;4.00;4.00;;;;;;;;4885977;29;45690;-67
2022/06/26 05:24:27;;;;;;;;;4.33;3.00;;;;;;;;4891317;29;45767;-67
2022/06/26 05:26:52;;;;;;;;;4.00;3.33;;;;;;;;4891266;28;45431;-67
2022/06/26 05:29:17;;;;;;;;;4.00;3.00;;;;;;;;4882954;28;45350;-67
2022/06/26 05:31:43;;;;;;;;;6.00;3.00;;;;;;;;4895556;28;46639;-67
2022/06/26 05:34:08;;;;;;;;;3.00;2.00;;;;;;;;4882872;29;45562;-67
2022/06/26 05:36:33;;;;;;;;;3.00;2.00;;;;;;;;4892871;29;45425;-67
2022/06/26 05:38:58;;;;;;;;;4.00;2.00;;;;;;;;4888128;28;45573;-67
2022/06/26 05:41:23;;;;;;;;;3.67;3.00;;;;;;;;4889031;28;45780;-67
2022/06/26 05:43:49;;;;;;;;;5.00;1.67;;;;;;;;4884033;29;46630;-67
2022/06/26 05:46:14;;;;;;;;;4.00;4.00;;;;;;;;4886003;29;45385;-67
2022/06/26 05:48:39;;;;;;;;;2.67;2.00;;;;;;;;4879750;28;45485;-67
2022/06/26 05:51:04;;;;;;;;;3.33;2.33;;;;;;;;4882595;29;45693;-67
2022/06/26 05:53:30;;;;;;;;;4.67;4.00;;;;;;;;4880885;29;45592;-69
2022/06/26 05:55:55;;;;;;;;;3.00;3.00;;;;;;;;4886503;29;45662;-67
2022/06/26 05:58:20;;;;;;;;;4.00;2.67;;;;;;;;4879289;29;45488;-67
2022/06/26 06:00:45;;;;;;;;;3.00;3.00;;;;;;;;4875117;29;47012;-67
2022/06/26 06:03:10;;;;;;;;;5.00;3.00;;;;;;;;4878959;29;46948;-67
2022/06/26 06:05:36;;;;;;;;;3.33;3.00;;;;;;;;4882207;29;45413;-67
2022/06/26 06:08:01;;;;;;;;;2.00;2.00;;;;;;;;4883820;29;45496;-67
2022/06/26 06:10:27;;;;;;;;;2.00;2.00;;;;;;;;4877367;29;45485;-67
2022/06/26 06:12:52;;;;;;;;;2.00;2.00;;;;;;;;4880833;29;45645;-67
2022/06/26 06:15:18;;;;;;;;;3.00;2.00;;;;;;;;4886063;29;45677;-66
2022/06/26 06:17:44;;;;;;;;;4.67;3.00;;;;;;;;4881235;29;45429;-67
2022/06/26 06:20:10;;;;;;;;;1.33;1.33;;;;;;;;4873431;29;45472;-67
2022/06/26 06:22:35;;;;;;;;;5.00;2.33;;;;;;;;4884734;29;46574;-67
2022/06/26 06:25:00;;;;;;;;;2.00;2.00;;;;;;;;4877887;29;45797;-67
2022/06/26 06:27:25;;;;;;;;;3.00;2.00;;;;;;;;4891523;29;45459;-67
2022/06/26 06:29:50;;;;;;;;;3.00;3.00;;;;;;;;4880473;29;45304;-67
2022/06/26 06:32:16;;;;;;;;;4.00;2.00;;;;;;;;4883345;29;45479;-66
2022/06/26 06:34:41;;;;;;;;;3.67;2.00;;;;;;;;4880193;29;45814;-67
2022/06/26 06:37:06;;;;;;;;;4.33;2.67;;;;;;;;4884457;29;45385;-67
2022/06/26 06:39:32;;;;;;;;;2.33;2.33;;;;;;;;4881564;28;45621;-67
2022/06/26 06:41:57;;;;;;;;;3.33;3.33;;;;;;;;4875479;29;47618;-67
2022/06/26 06:44:22;;;;;;;;;3.33;1.67;;;;;;;;4879475;29;45395;-67
2022/06/26 06:46:47;;;;;;;;;2.33;1.33;;;;;;;;4878859;29;45485;-67
2022/06/26 06:49:13;;;;;;;;;2.33;2.00;;;;;;;;4874516;29;46194;-67
2022/06/26 06:51:38;;;;;;;;;2.67;2.67;;;;;;;;4877811;29;46723;-67
2022/06/26 06:54:03;;;;;;;;;3.67;2.00;;;;;;;;4881183;29;45505;-67
2022/06/26 06:56:28;;;;;;;;;2.67;2.67;;;;;;;;4882790;29;45496;-67
2022/06/26 06:58:53;;;;;;;;;5.33;4.00;;;;;;;;4880619;28;45815;-67
2022/06/26 07:01:19;;;;;;;;;4.33;3.00;;;;;;;;4882689;29;45474;-66
2022/06/26 07:03:44;;;;;;;;;4.00;2.00;;;;;;;;4885383;29;45548;-66
2022/06/26 07:06:09;;;;;;;;;2.00;2.00;;;;;;;;4876840;29;45984;-67
2022/06/26 07:08:34;;;;;;;;;4.33;2.33;;;;;;;;4872824;29;46030;-67
2022/06/26 07:11:00;;;;;;;;;4.33;2.00;;;;;;;;4879665;29;47193;-66
2022/06/26 07:13:25;;;;;;;;;1.33;1.33;;;;;;;;4873553;29;45662;-66
2022/06/26 07:15:51;;;;;;;;;2.33;2.00;;;;;;;;4882196;29;46421;-67
2022/06/26 07:18:16;;;;;;;;;3.00;3.00;;;;;;;;4881002;29;45594;-67
2022/06/26 07:20:42;;;;;;;;;2.00;2.00;;;;;;;;4885017;28;45397;-68
2022/06/26 07:23:07;;;;;;;;;2.00;2.00;;;;;;;;4880334;28;45423;-70
2022/06/26 07:25:32;;;;;;;;;3.00;2.00;;;;;;;;4881958;29;45257;-75
2022/06/26 07:27:57;;;;;;;;;2.00;2.00;;;;;;;;4882142;29;45399;-71
2022/06/26 07:30:22;;;;;;;;;2.33;2.33;;;;;;;;4876816;29;45626;-73
2022/06/26 07:32:48;;;;;;;;;1.67;1.67;;;;;;;;4881090;29;45449;-72
2022/06/26 07:35:13;;;;;;;;;2.00;1.33;;;;;;;;4882605;29;45514;-72
2022/06/26 07:37:38;;;;;;;;;4.00;2.00;;;;;;;;4880262;29;45950;-71
2022/06/26 07:40:04;;;;;;;;;2.00;2.00;;;;;;;;4884513;29;45835;-71
2022/06/26 07:42:30;;;;;;;;;2.00;2.00;;;;;;;;4879451;29;45891;-73
2022/06/26 07:44:55;;;;;;;;;3.00;1.67;;;;;;;;4877576;29;45613;-71
2022/06/26 07:47:20;;;;;;;;;0.67;0.67;;;;;;;;4883960;29;45452;-71
2022/06/26 07:49:46;;;;;;;;;0.67;0.67;;;;;;;;4871792;29;47685;-71
2022/06/26 07:52:11;;;;;;;;;1.00;1.00;;;;;;;;4882545;29;45371;-71
2022/06/26 07:54:36;;;;;;;;;5.33;1.67;;;;;;;;4875000;29;45471;-71
2022/06/26 07:57:01;;;;;;;;;2.75;2.75;;;;;;;;4884511;29;45939;-71
2022/06/26 07:59:26;;;;;;;;;2.50;1.50;;;;;;;;4877118;29;47031;-71
2022/06/26 08:01:52;;;;;;;;;3.00;1.33;;;;;;;;4884615;29;45317;-71
2022/06/26 08:04:17;;;;;;;;;2.33;1.00;;;;;;;;4876744;29;45436;-71
2022/06/26 08:06:42;;;;;;;;;2.00;2.00;;;;;;;;4879094;29;45494;-71
2022/06/26 08:09:07;;;;;;;;;2.25;1.25;;;;;;;;4874955;29;45532;-71
2022/06/26 08:11:33;;;;;;;;;2.75;1.00;;;;;;;;4882145;29;45450;-71
2022/06/26 08:13:58;;;;;;;;;2.00;1.50;;;;;;;;4881373;28;45822;-71
2022/06/26 08:16:23;;;;;;;;;2.25;2.25;;;;;;;;4878289;29;45590;-71
2022/06/26 08:18:48;;;;;;;;;3.00;1.00;;;;;;;;4878955;29;46223;-71
2022/06/26 08:23:58;;;;;;;;;2.25;2.25;;;;;;;;4875038;29;45353;-72
2022/06/26 08:26:23;;;;;;;;;2.00;2.00;;;;;;;;4886685;29;45526;-71
2022/06/26 08:28:48;;;;;;;;;1.75;1.75;;;;;;;;4877323;29;47095;-71
2022/06/26 08:31:14;;;;;;;;;1.00;1.00;;;;;;;;4882367;29;45381;-71
2022/06/26 08:33:39;;;;;;;;;2.00;0.75;;;;;;;;4881309;29;45473;-71
2022/06/26 08:36:05;;;;;;;;;0.75;0.75;;;;;;;;4882110;29;45479;-71
2022/06/26 08:38:30;;;;;;;;;1.50;0.75;;;;;;;;4881313;29;45485;-71
2022/06/26 08:40:57;;;;;;;;;3.00;2.00;;;;;;;;4880950;29;45550;-68
2022/06/26 08:43:23;;;;;;;;;1.75;1.00;;;;;;;;4884958;29;45452;-69
2022/06/26 08:45:50;;;;;;;;;1.00;1.00;;;;;;;;4881731;29;45365;-67
2022/06/26 08:48:15;;;;;;;;;1.00;1.00;;;;;;;;4878507;29;46673;-67
2022/06/26 08:50:43;;;;;;;;;2.25;2.00;;;;;;;;4879570;29;45344;-68
2022/06/26 08:53:08;;;;;;;;;1.75;1.00;;;;;;;;4880404;29;45312;-71
2022/06/26 08:55:34;;;;;;;;;1.00;1.00;;;;;;;;4879775;29;45327;-68
2022/06/26 08:57:59;;;;;;;;;2.00;0.00;;;;;;;;4890732;29;46682;-69
2022/06/26 09:00:24;;;;;;;;;3.25;1.00;;;;;;;;4893072;29;45284;-67
2022/06/26 09:02:49;;;;;;;;;4.00;2.00;;;;;;;;4882887;28;45621;-67
2022/06/26 09:05:14;;;;;;;;;1.00;1.00;;;;;;;;4882276;29;45632;-68
2022/06/26 09:07:43;;;;;;;;;3.00;2.00;;;;;;;;4878537;29;45457;-67
2022/06/26 09:10:10;;;;;;;;;2.50;1.00;;;;;;;;4882061;29;45572;-68
2022/06/26 09:12:35;;;;;;;;;1.00;1.00;;;;;;;;4880897;29;45343;-68
2022/06/26 09:15:01;;;;;;;;;1.00;1.00;;;;;;;;4884069;29;45806;-68
2022/06/26 09:17:26;;;;;;;;;0.00;0.00;;;;;;;;4878535;29;46171;-68
2022/06/26 09:19:51;;;;;;;;;1.25;1.25;;;;;;;;4887744;29;45832;-68
2022/06/26 09:22:17;;;;;;;;;1.00;1.00;;;;;;;;4881900;29;45702;-68
2022/06/26 09:24:53;;;;;;;;;3.00;1.50;;;;;;;;4874846;29;45350;-68
2022/06/26 09:27:19;;;;;;;;;1.80;0.80;;;;;;;;4878052;29;46932;-68
2022/06/26 09:29:49;;;;;;;;;1.50;1.50;;;;;;;;4878149;29;45744;-68
2022/06/26 09:32:14;;;;;;;;;2.00;0.75;;;;;;;;4884463;29;45459;-68
2022/06/26 09:34:47;;;;;;;;;0.50;0.50;;;;;;;;4883931;29;45725;-67
2022/06/26 09:37:12;;;;;;;;;0.80;0.80;;;;;;;;4884710;29;47957;-68
2022/06/26 09:39:38;;;;;;;;;1.25;1.25;;;;;;;;4876510;29;45723;-68
2022/06/26 09:42:14;;;;;;;;;0.50;0.50;;;;;;;;4877538;29;45553;-68
2022/06/26 09:44:46;;;;;;;;;1.25;0.25;;;;;;;;4884411;29;45483;-68
2022/06/26 09:47:22;;;;;;;;;2.00;0.80;;;;;;;;4881356;29;45595;-68
2022/06/26 09:49:48;;;;;;;;;2.60;0.80;;;;;;;;4880785;29;45412;-68
2022/06/26 09:52:13;;;;;;;;;4.20;1.40;;;;;;;;4878229;29;45494;-68
2022/06/26 09:54:39;;;;;;;;;0.00;0.00;;;;;;;;4884096;29;45601;-68
2022/06/26 09:57:04;;;;;;;;;3.00;1.00;;;;;;;;4884416;29;46313;-68
2022/06/26 09:59:30;;;;;;;;;1.75;0.75;;;;;;;;4882206;28;45516;-68
2022/06/26 10:07:23;;;;;;;;;1.00;0.80;;;;;;;;4885092;29;45774;-68
2022/06/26 10:09:49;;;;;;;;;1.00;1.00;;;;;;;;4891811;28;45688;-68
2022/06/26 10:12:14;;;;;;;;;1.00;0.25;;;;;;;;4880817;29;45966;-68
2022/06/26 10:14:42;;;;;;;;;1.75;1.25;;;;;;;;4890962;29;46326;-68
2022/06/26 10:17:10;;;;;;;;;1.80;0.80;;;;;;;;4877984;29;47216;-68
2022/06/26 10:19:35;;;;;;;;;0.00;0.00;;;;;;;;4879799;29;45367;-68
2022/06/26 10:22:01;;;;;;;;;0.25;0.00;;;;;;;;4878348;29;45810;-68
2022/06/26 10:24:26;;;;;;;;;1.00;1.00;;;;;;;;4881189;29;45552;-68
2022/06/26 10:26:56;;;;;;;;;0.00;0.00;;;;;;;;4886711;29;46342;-68
2022/06/26 10:29:38;;;;;;;;;0.80;0.00;;;;;;;;4891993;28;45438;-68
2022/06/26 10:32:04;;;;;;;;;0.00;0.00;;;;;;;;4881803;29;45626;-68
2022/06/26 10:34:31;;;;;;;;;0.80;0.80;;;;;;;;4893899;28;45458;-68
2022/06/26 10:37:00;;;;;;;;;2.80;2.80;;;;;;;;4878264;29;45497;-69
2022/06/26 10:39:37;;;;;;;;;2.20;2.20;;;;;;;;4887787;28;45652;-69
2022/06/26 10:45:06;;;;;;;;;179.00;168.33;;;;;;;;4887564;29;45485;-69
2022/06/26 10:47:42;;;;;;;;;14.00;14.00;;;;;;;;4893796;28;46815;-68
2022/06/26 10:50:21;;;;;;;;;5.20;4.00;;;;;;;;4892794;29;45519;-69
2022/06/26 10:52:46;;;;;;;;;1.60;1.60;;;;;;;;4886408;29;45577;-69
2022/06/26 10:55:11;;;;;;;;;0.50;0.50;;;;;;;;4890681;29;45813;-69
2022/06/26 10:57:37;;;;;;;;;1.00;0.25;;;;;;;;4883632;29;45718;-68
2022/06/26 11:00:05;;;;;;;;;2.50;2.00;;;;;;;;4882152;29;45966;-69
2022/06/26 11:02:36;;;;;;;;;1.60;1.20;;;;;;;;4874615;29;45944;-69
2022/06/26 11:05:02;;;;;;;;;0.20;0.20;;;;;;;;4884949;29;45403;-69
2022/06/26 11:07:28;;;;;;;;;0.20;0.20;;;;;;;;4873253;29;47508;-69
2022/06/26 11:09:57;;;;;;;;;0.00;0.00;;;;;;;;4883311;29;45320;-69
2022/06/26 11:12:22;;;;;;;;;0.00;0.00;;;;;;;;4877453;29;45631;-69
2022/06/26 11:14:47;;;;;;;;;0.00;0.00;;;;;;;;4878993;29;45868;-69
2022/06/26 11:17:12;;;;;;;;;1.25;1.25;;;;;;;;4879344;29;46575;-70
2022/06/26 11:22:21;;;;;;;;;1.00;1.00;;;;;;;;4876671;29;45727;-68
2022/06/26 11:24:47;;;;;;;;;4.00;4.00;;;;;;;;4879197;29;45831;-68
2022/06/26 11:27:13;;;;;;;;;0.40;0.20;;;;;;;;4887160;29;46698;-68
2022/06/26 11:29:39;;;;;;;;;1.25;0.25;;;;;;;;4888044;29;45772;-68
2022/06/26 11:32:04;;;;;;;;;3.00;2.00;;;;;;;;4884127;29;45983;-67
2022/06/26 11:34:30;;;;;;;;;2.50;2.00;;;;;;;;4883225;29;45454;-67
2022/06/26 11:36:56;;;;;;;;;0.00;0.00;;;;;;;;4878863;29;45950;-68
2022/06/26 11:39:23;;;;;;;;;2.40;0.80;;;;;;;;4883329;29;45362;-67
2022/06/26 11:41:48;;;;;;;;;0.80;0.20;;;;;;;;4881572;29;45388;-68
2022/06/26 11:44:14;;;;;;;;;3.50;1.00;;;;;;;;4878261;29;45436;-68
2022/06/26 11:46:40;;;;;;;;;3.00;2.25;;;;;;;;4883110;29;46472;-69
2022/06/26 11:49:08;;;;;;;;;3.75;3.00;;;;;;;;4878349;29;45464;-68
2022/06/26 11:51:33;;;;;;;;;1.80;1.80;;;;;;;;4863866;29;45446;-68
2022/06/26 11:53:59;;;;;;;;;1.25;1.25;;;;;;;;4876707;29;45292;-68
2022/06/26 11:56:25;;;;;;;;;1.00;1.00;;;;;;;;4890803;29;45473;-67
2022/06/26 11:58:51;;;;;;;;;0.80;0.80;;;;;;;;4875349;29;45396;-67
2022/06/26 12:01:17;;;;;;;;;5.00;2.20;;;;;;;;4882044;29;45343;-67
2022/06/26 12:03:45;;;;;;;;;31.00;29.00;;;;;;;;4873316;28;45744;-68
2022/06/26 12:06:11;;;;;;;;;26.75;25.50;;;;;;;;4880774;29;45641;-67
2022/06/26 12:08:36;;;;;;;;;5.00;4.50;;;;;;;;4877126;28;45727;-68
2022/06/26 12:11:01;;;;;;;;;6.75;5.75;;;;;;;;4884776;29;45457;-69
2022/06/26 12:13:29;;;;;;;;;2.00;0.50;;;;;;;;4885445;28;45430;-68
2022/06/26 12:16:00;;;;;;;;;1.60;0.60;;;;;;;;4883256;29;45362;-70
2022/06/26 12:18:26;;;;;;;;;0.40;0.40;;;;;;;;4890960;28;45904;-69
2022/06/26 12:20:51;;;;;;;;;1.60;0.20;;;;;;;;4887730;29;46523;-69
2022/06/26 12:23:16;;;;;;;;;2.50;0.25;;;;;;;;4890162;28;45623;-68
2022/06/26 12:25:44;;;;;;;;;4.00;4.00;;;;;;;;4884445;28;45940;-69
2022/06/26 12:28:19;;;;;;;;;0.20;0.20;;;;;;;;4882565;28;45641;-68
2022/06/26 12:30:44;;;;;;;;;0.20;0.20;;;;;;;;4883337;29;45650;-68
2022/06/26 12:33:10;;;;;;;;;1.00;1.00;;;;;;;;4878588;29;45924;-69
2022/06/26 12:35:35;;;;;;;;;0.00;0.00;;;;;;;;4885477;29;45810;-68
2022/06/26 12:38:01;;;;;;;;;0.50;0.50;;;;;;;;4880674;29;45667;-69
2022/06/26 12:40:26;;;;;;;;;3.75;1.75;;;;;;;;4888704;29;45324;-69
2022/06/26 12:42:52;;;;;;;;;0.00;0.00;;;;;;;;4877281;29;45980;-68
2022/06/26 12:45:17;;;;;;;;;0.25;0.25;;;;;;;;4886106;29;45573;-70
2022/06/26 12:47:43;;;;;;;;;0.25;0.25;;;;;;;;4878473;28;45499;-69
2022/06/26 12:50:09;;;;;;;;;2.50;2.00;;;;;;;;4886367;29;45615;-70
2022/06/26 12:52:35;;;;;;;;;1.00;1.00;;;;;;;;4881121;29;45523;-68
2022/06/26 12:55:00;;;;;;;;;2.50;0.00;;;;;;;;4885746;29;46560;-69
2022/06/26 12:57:26;;;;;;;;;0.50;0.25;;;;;;;;4882265;29;45884;-68
2022/06/26 12:59:51;;;;;;;;;1.25;0.00;;;;;;;;4886809;29;45570;-69
2022/06/26 13:02:16;;;;;;;;;0.25;0.25;;;;;;;;4880416;29;45625;-68
2022/06/26 13:04:41;;;;;;;;;0.25;0.25;;;;;;;;4883026;29;46558;-68
2022/06/26 13:07:07;;;;;;;;;1.75;1.75;;;;;;;;4887660;28;45558;-69
2022/06/26 13:09:32;;;;;;;;;1.25;1.25;;;;;;;;4883854;29;45420;-68
2022/06/26 13:11:57;;;;;;;;;0.25;0.25;;;;;;;;4878260;29;45652;-68
2022/06/26 13:14:22;;;;;;;;;0.25;0.25;;;;;;;;4879873;29;46190;-69
2022/06/26 13:16:48;;;;;;;;;1.00;0.00;;;;;;;;4881101;28;45673;-68
2022/06/26 13:19:13;;;;;;;;;2.25;0.50;;;;;;;;4875819;29;45631;-68
2022/06/26 13:21:39;;;;;;;;;0.50;0.50;;;;;;;;4879150;28;45589;-68
2022/06/26 13:24:04;;;;;;;;;0.25;0.25;;;;;;;;4884865;29;45520;-69
2022/06/26 13:26:29;;;;;;;;;2.00;0.25;;;;;;;;4888055;29;45546;-68
2022/06/26 13:28:55;;;;;;;;;0.00;0.00;;;;;;;;4882095;29;45597;-69
2022/06/26 13:31:20;;;;;;;;;0.00;0.00;;;;;;;;4883610;29;45949;-69
2022/06/26 13:33:45;;;;;;;;;0.00;0.00;;;;;;;;4878898;29;48095;-69
2022/06/26 13:36:10;;;;;;;;;1.50;1.00;;;;;;;;4878018;29;45356;-68
2022/06/26 13:38:36;;;;;;;;;0.00;0.00;;;;;;;;4881225;29;45537;-68
2022/06/26 13:41:01;;;;;;;;;1.00;1.00;;;;;;;;4891509;28;45658;-69
2022/06/26 13:43:27;;;;;;;;;0.00;0.00;;;;;;;;4879043;29;45567;-67
2022/06/26 13:45:52;;;;;;;;;0.00;0.00;;;;;;;;4880170;29;45463;-68
2022/06/26 13:48:17;;;;;;;;;0.25;0.00;;;;;;;;4879953;29;45484;-68
2022/06/26 13:50:42;;;;;;;;;0.25;0.25;;;;;;;;4884734;29;45664;-68
2022/06/26 13:53:08;;;;;;;;;0.25;0.25;;;;;;;;4880153;29;46392;-68
2022/06/26 13:55:33;;;;;;;;;1.00;0.00;;;;;;;;4883907;29;45537;-68
2022/06/26 13:57:58;;;;;;;;;0.50;0.00;;;;;;;;4879720;29;46201;-69
2022/06/26 14:00:23;;;;;;;;;0.25;0.25;;;;;;;;4885058;29;46010;-70
2022/06/26 14:02:49;;;;;;;;;1.75;1.75;;;;;;;;4877646;29;45541;-69
2022/06/26 14:05:14;;;;;;;;;2.00;0.50;;;;;;;;4881202;29;45587;-70
2022/06/26 14:07:39;;;;;;;;;1.00;1.00;;;;;;;;4878320;29;46049;-69
2022/06/26 14:10:05;;;;;;;;;1.75;1.00;;;;;;;;4880997;29;45633;-69
2022/06/26 14:12:30;;;;;;;;;3.25;2.00;;;;;;;;4877041;29;45951;-69
2022/06/26 14:14:55;;;;;;;;;2.50;2.00;;;;;;;;4877703;29;45995;-70
2022/06/26 14:17:21;;;;;;;;;1.25;1.25;;;;;;;;4878884;29;46659;-69
2022/06/26 14:19:46;;;;;;;;;2.00;2.00;;;;;;;;4878896;29;45908;-69
2022/06/26 14:27:39;;;;;;;;;2.00;1.80;;;;;;;;4879967;29;45540;-70
2022/06/26 14:30:05;;;;;;;;;1.25;1.25;;;;;;;;4880639;29;45553;-70
2022/06/26 14:32:30;;;;;;;;;0.75;0.75;;;;;;;;4884577;29;45429;-68
2022/06/26 14:34:57;;;;;;;;;0.25;0.25;;;;;;;;4882498;29;45480;-70
2022/06/26 14:37:22;;;;;;;;;1.00;1.00;;;;;;;;4875554;29;45561;-69
2022/06/26 14:39:47;;;;;;;;;2.25;1.25;;;;;;;;4888360;29;45903;-69
2022/06/26 14:42:12;;;;;;;;;1.00;1.00;;;;;;;;4879632;29;46344;-68
2022/06/26 14:44:38;;;;;;;;;0.00;0.00;;;;;;;;4876636;29;45487;-69
2022/06/26 14:47:04;;;;;;;;;0.75;0.00;;;;;;;;4876596;29;45748;-69
2022/06/26 14:49:29;;;;;;;;;1.00;0.00;;;;;;;;4877918;29;45611;-69
2022/06/26 14:51:54;;;;;;;;;0.75;0.75;;;;;;;;4881015;29;45683;-68
2022/06/26 14:54:19;;;;;;;;;2.25;1.50;;;;;;;;4879694;29;45659;-69
2022/06/26 14:56:44;;;;;;;;;1.25;0.00;;;;;;;;4880708;29;45737;-70
2022/06/26 14:59:09;;;;;;;;;0.50;0.00;;;;;;;;4879009;29;45773;-68